Glassville, Canada
Current Conditions -  °F | °C
As of 1:53 PM on Friday 24 Oct 2014 (Local Time) from KHUL Reporting Station
Light Rain Light Rain  
Wind Chill: 39°   Ceiling: 600
Heat Index: 44°   Visibility: 5mi
Dew Point: 42°   Wind: 10mph
Humidity: 93%   Direction: 20°NNE
Pressure: 29.67"   Gusts: NA
Location:  46.48°N, 67.42°W
Report Text: KHUL 241653Z AUTO 02009KT 5SM -RA BR OVC006 07/06 A2967 RMK AO2 RAB00 SLP051 P0001 T00670056
Loading
Personal Weather Stations






























Interactive Weather Map New forecast layout! Learn more

10-Day Weather Forecast

Advertisements
Track Severe Weather on mobile